Flag for Guadeloupe

Past Weather in 15°52'07.2"N, 61°35'00.8"W, Guadeloupe — Yesterday and Last 2 Weeks

Currently: 84 °F. Partly sunny. (Weather station: Le Raizet - Guadeloupe, Guadeloupe). See more current weather

Past Weather in 15°52'07.2"N, 61°35'00.8"W — Graph

°F

15°52'07.2"N, 61°35'00.8"W Temperature Yesterday

Maximum temperature yesterday: 86 °F (at 11:00 am)
Minimum temperature yesterday: 75 °F (at 3:00 pm)
Average temperature yesterday: 80 °F

High & Low Weather Summary for the Past Weeks

 TemperatureHumidityPressure
High90 °F (Jun 29, 1:00 pm)100% (Jun 20, 2:00 am)30.09 "Hg (Jun 20, 2:00 am)
Low73 °F (Jun 20, 2:00 am)49% (Jun 27, 1:00 pm)29.86 "Hg (Jun 22, 4:00 pm)
Average81 °F77%29.98 "Hg
* Reported Jun 17 10:00 am — Jul 2 10:00 am, 15°52'07.2"N, 61°35'00.8"W. Weather by CustomWeather, © 2022

Note: Actual official high and low records may vary slightly from our data, if they occured in-between our weather recording intervals... More about our weather records

15°52'07.2"N, 61°35'00.8"W Weather History for the Previous 24 Hours

Scroll right to see more
 ConditionsComfort  
Time TempWeatherWind HumidityBarometerVisibility
10:00 am
Sat, Jul 2
84 °FPartly sunny.18 mph74%30.01 "HgN/A
9:30 am82 °FPartly sunny.16 mph79%30.01 "HgN/A
9:00 am82 °FPartly sunny.17 mph74%30.01 "HgN/A
8:30 am82 °FMostly cloudy.13 mph84%30.01 "HgN/A
8:00 am81 °FMostly cloudy.13 mph89%30.01 "HgN/A
7:00 am81 °FMore clouds than sun.10 mph84%29.98 "HgN/A
6:30 am81 °FOvercast.16 mph84%29.95 "HgN/A
6:00 am79 °FMostly cloudy.13 mph89%29.95 "HgN/A
5:30 am79 °FMostly cloudy.13 mph89%29.95 "HgN/A
5:00 am79 °FMostly cloudy.15 mph89%29.92 "HgN/A
4:30 am79 °FPassing clouds.17 mph89%29.92 "HgN/A
4:00 am79 °FMostly cloudy.20 mph89%29.92 "HgN/A
3:00 am79 °FMostly cloudy.17 mph89%29.92 "HgN/A
2:30 am79 °FPartly cloudy.17 mph89%29.92 "HgN/A
2:00 am79 °FPartly cloudy.17 mph89%29.92 "HgN/A
1:00 am79 °FPassing clouds.14 mph89%29.95 "HgN/A
12:30 am79 °FPartly cloudy.14 mph89%29.95 "HgN/A
12:00 am79 °FPassing clouds.12 mph89%29.95 "HgN/A
11:30 pm
Fri, Jul 1
79 °FLight rain. Overcast.12 mph89%29.98 "HgN/A
11:00 pm77 °FLight rain. Overcast.13 mph94%29.98 "HgN/A
10:30 pm77 °FPartly cloudy.12 mph94%29.98 "HgN/A
10:00 pm77 °FLight rain. Partly cloudy.14 mph94%29.98 "HgN/A
9:30 pm77 °FLight rain. Partly cloudy.14 mph94%29.95 "HgN/A
9:00 pm77 °FPartly cloudy.10 mph94%29.95 "HgN/A
7:30 pm79 °FPartly cloudy.12 mph84%29.95 "HgN/A
7:00 pm77 °FPassing clouds.12 mph94%29.92 "HgN/A
6:00 pm77 °FBroken clouds.12 mph89%29.92 "HgN/A
5:00 pm77 °FPartly sunny.10 mph94%29.92 "HgN/A
4:30 pm75 °FPartly sunny.10 mph94%29.92 "HgN/A
4:00 pm75 °FBroken clouds.8 mph100%29.92 "HgN/A
3:30 pm75 °FRain. Fog.15 mph94%29.92 "Hg3 mi
3:00 pm75 °FThundershowers. Fog.21 mph89%29.95 "Hg1 mi
2:30 pm86 °FMostly cloudy.21 mph70%29.92 "HgN/A
2:00 pm86 °FMostly cloudy.24 mph70%29.92 "HgN/A
1:00 pm86 °FPartly sunny.21 mph70%29.95 "HgN/A
12:00 pm86 °FMostly cloudy.21 mph70%29.95 "HgN/A
11:30 am84 °FMostly cloudy.21 mph74%29.95 "HgN/A
11:00 am86 °FMostly cloudy.21 mph66%29.95 "HgN/A
Weather by CustomWeather, © 2022

See weather overview